sensor_id;sensor_type;location;lat;lon;timestamp;pressure;altitude;pressure_sealevel;temperature;humidity
44198;BME280;30157;55.512;37.764;2023-03-13T00:01:17;98536.22;;;-6.36;84.00
44198;BME280;30157;55.512;37.764;2023-03-13T00:03:43;98647.56;;;-5.69;84.73
44198;BME280;30157;55.512;37.764;2023-03-13T00:06:09;98651.19;;;-5.63;84.68
44198;BME280;30157;55.512;37.764;2023-03-13T00:08:35;98543.34;;;-6.27;83.79
44198;BME280;30157;55.512;37.764;2023-03-13T00:11:05;98631.78;;;-5.85;83.95
44198;BME280;30157;55.512;37.764;2023-03-13T00:13:31;98651.88;;;-5.67;83.61
44198;BME280;30157;55.512;37.764;2023-03-13T00:16:01;98607.06;;;-5.92;84.01
44198;BME280;30157;55.512;37.764;2023-03-13T00:18:27;98622.59;;;-5.83;83.98
44198;BME280;30157;55.512;37.764;2023-03-13T00:20:58;98674.22;;;-5.57;84.06
44198;BME280;30157;55.512;37.764;2023-03-13T00:23:23;98629.25;;;-5.85;84.02
44198;BME280;30157;55.512;37.764;2023-03-13T00:25:55;98663.84;;;-5.63;83.40
44198;BME280;30157;55.512;37.764;2023-03-13T00:28:21;98622.22;;;-5.92;83.48
44198;BME280;30157;55.512;37.764;2023-03-13T00:30:46;98687.13;;;-5.50;83.43
44198;BME280;30157;55.512;37.764;2023-03-13T00:33:12;98541.09;;;-6.40;83.56
44198;BME280;30157;55.512;37.764;2023-03-13T00:35:38;98578.03;;;-6.23;83.90
44198;BME280;30157;55.512;37.764;2023-03-13T00:38:03;98709.00;;;-5.51;83.64
44198;BME280;30157;55.512;37.764;2023-03-13T00:40:29;98639.97;;;-5.91;83.63
44198;BME280;30157;55.512;37.764;2023-03-13T00:42:55;98611.69;;;-6.03;83.54
44198;BME280;30157;55.512;37.764;2023-03-13T00:45:22;98716.59;;;-5.51;84.05
44198;BME280;30157;55.512;37.764;2023-03-13T00:47:48;98707.22;;;-5.53;83.56
44198;BME280;30157;55.512;37.764;2023-03-13T00:50:14;98669.56;;;-5.88;83.79
44198;BME280;30157;55.512;37.764;2023-03-13T00:52:40;98698.03;;;-5.92;83.41
44198;BME280;30157;55.512;37.764;2023-03-13T00:55:07;98567.28;;;-6.78;84.08
44198;BME280;30157;55.512;37.764;2023-03-13T00:57:33;98720.53;;;-5.98;84.33
44198;BME280;30157;55.512;37.764;2023-03-13T01:00:03;98671.69;;;-6.38;84.76
44198;BME280;30157;55.512;37.764;2023-03-13T01:02:30;98625.19;;;-6.81;84.70
44198;BME280;30157;55.512;37.764;2023-03-13T01:04:56;98724.59;;;-6.21;84.95
44198;BME280;30157;55.512;37.764;2023-03-13T01:07:23;98606.50;;;-7.04;85.29
44198;BME280;30157;55.512;37.764;2023-03-13T01:09:48;98746.84;;;-6.13;85.20
44198;BME280;30157;55.512;37.764;2023-03-13T01:12:14;98631.81;;;-6.83;85.38
44198;BME280;30157;55.512;37.764;2023-03-13T01:14:40;98730.38;;;-6.24;85.05
44198;BME280;30157;55.512;37.764;2023-03-13T01:17:05;98748.25;;;-6.19;85.13
44198;BME280;30157;55.512;37.764;2023-03-13T01:19:31;98734.22;;;-6.32;84.88
44198;BME280;30157;55.512;37.764;2023-03-13T01:21:57;98731.69;;;-6.32;85.50
44198;BME280;30157;55.512;37.764;2023-03-13T01:24:23;98735.94;;;-6.31;85.34
44198;BME280;30157;55.512;37.764;2023-03-13T01:26:49;98694.31;;;-6.59;85.35
44198;BME280;30157;55.512;37.764;2023-03-13T01:29:15;98767.47;;;-6.23;85.21
44198;BME280;30157;55.512;37.764;2023-03-13T01:31:40;98803.31;;;-6.12;85.22
44198;BME280;30157;55.512;37.764;2023-03-13T01:34:07;98807.06;;;-6.22;85.81
44198;BME280;30157;55.512;37.764;2023-03-13T01:36:34;98742.91;;;-6.63;85.90
44198;BME280;30157;55.512;37.764;2023-03-13T01:39:00;98781.28;;;-6.52;86.50
44198;BME280;30157;55.512;37.764;2023-03-13T01:41:28;98738.25;;;-6.92;86.54
44198;BME280;30157;55.512;37.764;2023-03-13T01:43:54;98677.50;;;-7.32;86.46
44198;BME280;30157;55.512;37.764;2023-03-13T01:49:13;98816.59;;;-6.70;86.84
44198;BME280;30157;55.512;37.764;2023-03-13T01:52:09;98741.44;;;-7.30;86.63
44198;BME280;30157;55.512;37.764;2023-03-13T01:55:08;98724.94;;;-7.41;87.01
44198;BME280;30157;55.512;37.764;2023-03-13T01:57:41;98864.41;;;-6.73;87.14
44198;BME280;30157;55.512;37.764;2023-03-13T02:00:12;98777.59;;;-7.30;87.32
44198;BME280;30157;55.512;37.764;2023-03-13T02:02:47;98874.00;;;-6.84;87.24
44198;BME280;30157;55.512;37.764;2023-03-13T02:05:16;98872.91;;;-6.89;87.21
44198;BME280;30157;55.512;37.764;2023-03-13T02:08:15;98874.44;;;-6.93;87.74
44198;BME280;30157;55.512;37.764;2023-03-13T02:10:57;98880.00;;;-6.99;87.54
44198;BME280;30157;55.512;37.764;2023-03-13T02:13:27;98854.13;;;-7.29;87.26
44198;BME280;30157;55.512;37.764;2023-03-13T02:15:53;98802.16;;;-7.60;87.58
44198;BME280;30157;55.512;37.764;2023-03-13T02:18:19;98881.53;;;-7.19;87.80
44198;BME280;30157;55.512;37.764;2023-03-13T02:20:46;98880.47;;;-7.24;87.71
44198;BME280;30157;55.512;37.764;2023-03-13T02:23:21;98894.63;;;-7.26;87.98
44198;BME280;30157;55.512;37.764;2023-03-13T02:25:52;98854.47;;;-7.56;87.68
44198;BME280;30157;55.512;37.764;2023-03-13T02:28:27;98849.66;;;-7.68;87.84
44198;BME280;30157;55.512;37.764;2023-03-13T02:30:58;98919.28;;;-7.37;87.68
44198;BME280;30157;55.512;37.764;2023-03-13T02:33:27;98890.31;;;-7.62;87.89
44198;BME280;30157;55.512;37.764;2023-03-13T02:35:55;98953.25;;;-7.30;87.96
44198;BME280;30157;55.512;37.764;2023-03-13T02:38:28;98903.19;;;-7.55;88.00
44198;BME280;30157;55.512;37.764;2023-03-13T02:40:55;98834.50;;;-8.01;87.68
44198;BME280;30157;55.512;37.764;2023-03-13T02:43:30;98949.47;;;-7.38;88.08
44198;BME280;30157;55.512;37.764;2023-03-13T02:46:17;98853.63;;;-8.04;88.37
44198;BME280;30157;55.512;37.764;2023-03-13T02:48:54;98930.44;;;-7.65;88.56
44198;BME280;30157;55.512;37.764;2023-03-13T02:51:30;98888.91;;;-7.88;88.58
44198;BME280;30157;55.512;37.764;2023-03-13T02:54:01;98959.22;;;-7.45;88.69
44198;BME280;30157;55.512;37.764;2023-03-13T02:56:30;98949.00;;;-7.48;88.84
44198;BME280;30157;55.512;37.764;2023-03-13T02:58:58;98814.44;;;-8.31;88.68
44198;BME280;30157;55.512;37.764;2023-03-13T03:01:25;98964.25;;;-7.45;88.74
44198;BME280;30157;55.512;37.764;2023-03-13T03:03:51;98977.34;;;-7.35;88.98
44198;BME280;30157;55.512;37.764;2023-03-13T03:06:17;98975.47;;;-7.39;89.43
44198;BME280;30157;55.512;37.764;2023-03-13T03:08:43;98950.72;;;-7.63;88.63
44198;BME280;30157;55.512;37.764;2023-03-13T03:11:11;98893.06;;;-8.05;88.49
44198;BME280;30157;55.512;37.764;2023-03-13T03:13:37;98997.66;;;-7.49;89.24
44198;BME280;30157;55.512;37.764;2023-03-13T03:16:08;98947.13;;;-7.83;89.18
44198;BME280;30157;55.512;37.764;2023-03-13T03:18:35;99007.34;;;-7.56;89.33
44198;BME280;30157;55.512;37.764;2023-03-13T03:21:03;99004.03;;;-7.55;89.34
44198;BME280;30157;55.512;37.764;2023-03-13T03:23:34;99008.28;;;-7.54;89.50
44198;BME280;30157;55.512;37.764;2023-03-13T03:26:04;98994.41;;;-7.63;89.18
44198;BME280;30157;55.512;37.764;2023-03-13T03:28:31;98991.53;;;-7.69;89.50
44198;BME280;30157;55.512;37.764;2023-03-13T03:31:04;99010.56;;;-7.59;89.35
44198;BME280;30157;55.512;37.764;2023-03-13T03:33:30;98892.59;;;-8.29;89.75
44198;BME280;30157;55.512;37.764;2023-03-13T03:36:04;98955.53;;;-7.83;89.76
44198;BME280;30157;55.512;37.764;2023-03-13T03:38:30;98817.25;;;-8.57;89.83
44198;BME280;30157;55.512;37.764;2023-03-13T03:40:56;98999.06;;;-7.54;89.18
44198;BME280;30157;55.512;37.764;2023-03-13T03:43:22;99002.66;;;-7.65;88.74
44198;BME280;30157;55.512;37.764;2023-03-13T03:45:48;99003.63;;;-7.63;88.72
44198;BME280;30157;55.512;37.764;2023-03-13T03:48:13;99038.63;;;-7.53;89.23
44198;BME280;30157;55.512;37.764;2023-03-13T03:50:39;99050.28;;;-7.55;89.12
44198;BME280;30157;55.512;37.764;2023-03-13T03:53:05;99042.72;;;-7.55;89.11
44198;BME280;30157;55.512;37.764;2023-03-13T03:55:31;98934.25;;;-8.19;89.22
44198;BME280;30157;55.512;37.764;2023-03-13T03:57:56;99007.97;;;-7.76;89.55
44198;BME280;30157;55.512;37.764;2023-03-13T04:00:47;99023.09;;;-7.76;89.44
44198;BME280;30157;55.512;37.764;2023-03-13T04:03:14;99029.28;;;-7.70;89.32
44198;BME280;30157;55.512;37.764;2023-03-13T04:05:40;99059.75;;;-7.51;89.26
44198;BME280;30157;55.512;37.764;2023-03-13T04:08:06;99061.22;;;-7.54;89.42
44198;BME280;30157;55.512;37.764;2023-03-13T04:10:32;99058.63;;;-7.56;89.17
44198;BME280;30157;55.512;37.764;2023-03-13T04:13:18;98958.38;;;-8.23;88.97
44198;BME280;30157;55.512;37.764;2023-03-13T04:15:45;99053.84;;;-7.66;89.27
44198;BME280;30157;55.512;37.764;2023-03-13T04:18:11;99067.28;;;-7.36;89.15
44198;BME280;30157;55.512;37.764;2023-03-13T04:20:37;99087.44;;;-6.88;87.97
44198;BME280;30157;55.512;37.764;2023-03-13T04:23:03;99067.88;;;-6.26;85.79
44198;BME280;30157;55.512;37.764;2023-03-13T04:25:29;99100.41;;;-5.45;84.62
44198;BME280;30157;55.512;37.764;2023-03-13T04:27:58;99052.00;;;-4.97;84.67
44198;BME280;30157;55.512;37.764;2023-03-13T04:30:30;99096.78;;;-4.18;81.98
44198;BME280;30157;55.512;37.764;2023-03-13T04:33:16;99091.75;;;-3.76;76.74
44198;BME280;30157;55.512;37.764;2023-03-13T04:35:50;99103.31;;;-3.82;74.86
44198;BME280;30157;55.512;37.764;2023-03-13T04:38:39;99104.34;;;-3.58;76.43
44198;BME280;30157;55.512;37.764;2023-03-13T04:41:14;98921.00;;;-4.20;75.89
44198;BME280;30157;55.512;37.764;2023-03-13T04:43:59;99119.22;;;-3.00;71.97
44198;BME280;30157;55.512;37.764;2023-03-13T04:46:48;99102.34;;;-2.77;73.13
44198;BME280;30157;55.512;37.764;2023-03-13T04:49:32;99033.19;;;-3.15;71.42
44198;BME280;30157;55.512;37.764;2023-03-13T04:52:16;99128.47;;;-2.33;72.05
44198;BME280;30157;55.512;37.764;2023-03-13T04:55:01;99106.09;;;-2.19;71.20
44198;BME280;30157;55.512;37.764;2023-03-13T04:57:42;99061.00;;;-2.49;70.53
44198;BME280;30157;55.512;37.764;2023-03-13T05:00:33;99156.31;;;-1.63;68.90
44198;BME280;30157;55.512;37.764;2023-03-13T05:03:09;99163.22;;;-1.59;66.94
44198;BME280;30157;55.512;37.764;2023-03-13T05:05:57;99153.06;;;-1.06;68.65
44198;BME280;30157;55.512;37.764;2023-03-13T05:08:41;99106.09;;;-1.42;65.12
44198;BME280;30157;55.512;37.764;2023-03-13T05:11:38;99160.47;;;-1.40;63.21
44198;BME280;30157;55.512;37.764;2023-03-13T05:14:34;99086.91;;;-1.32;67.18
44198;BME280;30157;55.512;37.764;2023-03-13T05:17:10;99190.78;;;-0.08;67.45
44198;BME280;30157;55.512;37.764;2023-03-13T05:19:55;99193.72;;;0.08;67.02
44198;BME280;30157;55.512;37.764;2023-03-13T05:22:28;99153.56;;;0.32;68.15
44198;BME280;30157;55.512;37.764;2023-03-13T05:25:32;99199.47;;;0.64;62.20
44198;BME280;30157;55.512;37.764;2023-03-13T05:28:01;99117.59;;;0.58;62.75
44198;BME280;30157;55.512;37.764;2023-03-13T05:30:47;99119.19;;;-0.12;64.18
44198;BME280;30157;55.512;37.764;2023-03-13T05:33:29;99125.56;;;0.04;62.50
44198;BME280;30157;55.512;37.764;2023-03-13T05:36:07;99202.91;;;0.65;64.50
44198;BME280;30157;55.512;37.764;2023-03-13T05:38:42;99214.78;;;0.99;59.96
44198;BME280;30157;55.512;37.764;2023-03-13T05:41:42;99119.22;;;0.56;61.71
44198;BME280;30157;55.512;37.764;2023-03-13T05:44:15;99217.88;;;0.86;59.32
44198;BME280;30157;55.512;37.764;2023-03-13T05:46:59;99173.47;;;1.17;54.63
44198;BME280;30157;55.512;37.764;2023-03-13T05:49:46;99178.09;;;0.96;55.65
44198;BME280;30157;55.512;37.764;2023-03-13T05:52:14;99219.63;;;2.05;62.21
44198;BME280;30157;55.512;37.764;2023-03-13T05:54:45;99199.38;;;2.15;55.15
44198;BME280;30157;55.512;37.764;2023-03-13T05:57:38;99227.44;;;1.70;59.42
44198;BME280;30157;55.512;37.764;2023-03-13T06:00:24;99234.63;;;1.86;61.36
44198;BME280;30157;55.512;37.764;2023-03-13T06:03:06;99230.25;;;2.71;59.71
44198;BME280;30157;55.512;37.764;2023-03-13T06:05:42;99232.16;;;2.82;53.27
44198;BME280;30157;55.512;37.764;2023-03-13T06:08:22;99239.31;;;2.99;57.27
44198;BME280;30157;55.512;37.764;2023-03-13T06:10:49;99245.75;;;3.30;56.37
44198;BME280;30157;55.512;37.764;2023-03-13T06:13:14;99200.38;;;2.71;53.79
44198;BME280;30157;55.512;37.764;2023-03-13T06:15:40;99130.50;;;2.29;55.24
44198;BME280;30157;55.512;37.764;2023-03-13T06:18:32;99234.72;;;3.34;56.17
44198;BME280;30157;55.512;37.764;2023-03-13T06:20:59;99225.00;;;3.15;53.45
44198;BME280;30157;55.512;37.764;2023-03-13T06:23:26;99266.91;;;3.72;56.78
44198;BME280;30157;55.512;37.764;2023-03-13T06:25:52;99260.28;;;4.62;56.26
44198;BME280;30157;55.512;37.764;2023-03-13T06:28:18;99256.84;;;5.66;54.33
44198;BME280;30157;55.512;37.764;2023-03-13T06:30:43;99260.59;;;6.31;53.32
44198;BME280;30157;55.512;37.764;2023-03-13T06:33:09;99254.47;;;6.01;48.15
44198;BME280;30157;55.512;37.764;2023-03-13T06:35:39;99239.59;;;5.54;46.94
44198;BME280;30157;55.512;37.764;2023-03-13T06:38:05;99237.97;;;5.68;51.29
44198;BME280;30157;55.512;37.764;2023-03-13T06:40:31;99275.13;;;6.12;50.97
44198;BME280;30157;55.512;37.764;2023-03-13T06:42:57;99233.69;;;5.70;47.52
44198;BME280;30157;55.512;37.764;2023-03-13T06:45:24;99276.25;;;5.24;44.23
44198;BME280;30157;55.512;37.764;2023-03-13T06:47:49;99275.56;;;3.79;51.55
44198;BME280;30157;55.512;37.764;2023-03-13T06:50:17;99286.97;;;4.75;52.56
44198;BME280;30157;55.512;37.764;2023-03-13T06:52:43;99261.25;;;4.73;48.79
44198;BME280;30157;55.512;37.764;2023-03-13T06:55:10;99268.59;;;5.25;49.86
44198;BME280;30157;55.512;37.764;2023-03-13T06:57:36;99286.75;;;5.47;47.89
44198;BME280;30157;55.512;37.764;2023-03-13T07:00:02;99289.75;;;6.10;48.74
44198;BME280;30157;55.512;37.764;2023-03-13T07:02:30;99256.91;;;5.81;47.31
44198;BME280;30157;55.512;37.764;2023-03-13T07:04:56;99279.47;;;4.96;46.72
44198;BME280;30157;55.512;37.764;2023-03-13T07:07:22;99265.00;;;4.23;42.32
44198;BME280;30157;55.512;37.764;2023-03-13T07:09:48;99303.72;;;5.26;48.45
44198;BME280;30157;55.512;37.764;2023-03-13T07:12:13;99291.59;;;5.10;46.48
44198;BME280;30157;55.512;37.764;2023-03-13T07:14:39;99307.63;;;5.88;46.42
44198;BME280;30157;55.512;37.764;2023-03-13T07:17:05;99261.78;;;5.33;41.80
44198;BME280;30157;55.512;37.764;2023-03-13T07:19:31;99207.44;;;4.92;44.33
44198;BME280;30157;55.512;37.764;2023-03-13T07:21:56;99317.03;;;5.86;47.66
44198;BME280;30157;55.512;37.764;2023-03-13T07:24:22;99288.09;;;5.00;45.96
44198;BME280;30157;55.512;37.764;2023-03-13T07:26:48;99318.56;;;5.57;47.67
44198;BME280;30157;55.512;37.764;2023-03-13T07:29:14;99330.53;;;5.50;43.06
44198;BME280;30157;55.512;37.764;2023-03-13T07:31:39;99288.16;;;5.09;41.19
44198;BME280;30157;55.512;37.764;2023-03-13T07:34:05;99299.38;;;5.14;45.49
44198;BME280;30157;55.512;37.764;2023-03-13T07:36:31;99317.66;;;5.50;41.44
44198;BME280;30157;55.512;37.764;2023-03-13T07:38:59;99310.47;;;6.35;44.10
44198;BME280;30157;55.512;37.764;2023-03-13T07:41:25;99295.59;;;5.87;38.72
44198;BME280;30157;55.512;37.764;2023-03-13T07:43:51;99354.28;;;6.36;40.80
44198;BME280;30157;55.512;37.764;2023-03-13T07:46:17;99358.44;;;5.07;41.33
44198;BME280;30157;55.512;37.764;2023-03-13T07:48:45;99299.03;;;5.89;41.50
44198;BME280;30157;55.512;37.764;2023-03-13T07:51:16;99344.66;;;4.98;44.44
44198;BME280;30157;55.512;37.764;2023-03-13T07:53:43;99345.81;;;4.48;46.23
44198;BME280;30157;55.512;37.764;2023-03-13T07:56:11;99375.22;;;4.06;47.32
44198;BME280;30157;55.512;37.764;2023-03-13T07:58:38;99379.97;;;2.82;48.15
44198;BME280;30157;55.512;37.764;2023-03-13T08:01:21;99385.22;;;4.49;50.56
44198;BME280;30157;55.512;37.764;2023-03-13T08:03:47;99381.41;;;4.19;46.41
44198;BME280;30157;55.512;37.764;2023-03-13T08:06:18;99388.44;;;3.24;47.47
44198;BME280;30157;55.512;37.764;2023-03-13T08:08:44;99371.50;;;3.33;47.83
44198;BME280;30157;55.512;37.764;2023-03-13T08:11:18;99347.25;;;3.16;48.33
44198;BME280;30157;55.512;37.764;2023-03-13T08:13:44;99396.19;;;2.81;46.06
44198;BME280;30157;55.512;37.764;2023-03-13T08:16:15;99398.19;;;2.13;47.98
44198;BME280;30157;55.512;37.764;2023-03-13T08:18:43;99405.88;;;1.77;50.06
44198;BME280;30157;55.512;37.764;2023-03-13T08:21:14;99400.34;;;2.33;52.59
44198;BME280;30157;55.512;37.764;2023-03-13T08:23:40;99274.28;;;2.48;49.57
44198;BME280;30157;55.512;37.764;2023-03-13T08:26:07;99397.88;;;3.77;46.70
44198;BME280;30157;55.512;37.764;2023-03-13T08:28:34;99399.63;;;5.10;47.29
44198;BME280;30157;55.512;37.764;2023-03-13T08:31:15;99358.09;;;5.66;43.42
44198;BME280;30157;55.512;37.764;2023-03-13T08:33:42;99373.69;;;5.82;44.67
44198;BME280;30157;55.512;37.764;2023-03-13T08:38:39;99339.56;;;4.29;45.35
44198;BME280;30157;55.512;37.764;2023-03-13T08:41:07;99386.94;;;5.27;46.48
44198;BME280;30157;55.512;37.764;2023-03-13T08:43:33;99376.34;;;4.96;44.58
44198;BME280;30157;55.512;37.764;2023-03-13T08:45:59;99405.94;;;4.61;46.63
44198;BME280;30157;55.512;37.764;2023-03-13T08:48:24;99406.25;;;3.17;47.34
44198;BME280;30157;55.512;37.764;2023-03-13T08:51:04;99383.22;;;2.30;50.11
44198;BME280;30157;55.512;37.764;2023-03-13T08:53:31;99407.59;;;3.44;49.61
44198;BME280;30157;55.512;37.764;2023-03-13T08:55:57;99404.28;;;3.02;50.94
44198;BME280;30157;55.512;37.764;2023-03-13T08:58:23;99429.81;;;2.55;53.05
44198;BME280;30157;55.512;37.764;2023-03-13T09:00:49;99423.50;;;3.23;49.95
44198;BME280;30157;55.512;37.764;2023-03-13T09:03:15;99423.97;;;4.04;49.43
44198;BME280;30157;55.512;37.764;2023-03-13T09:05:42;99409.03;;;3.77;49.80
44198;BME280;30157;55.512;37.764;2023-03-13T09:08:07;99426.88;;;3.22;50.72
44198;BME280;30157;55.512;37.764;2023-03-13T09:10:34;99383.25;;;3.71;51.37
44198;BME280;30157;55.512;37.764;2023-03-13T09:13:00;99443.47;;;2.16;51.55
44198;BME280;30157;55.512;37.764;2023-03-13T09:15:26;99450.88;;;2.81;52.54
44198;BME280;30157;55.512;37.764;2023-03-13T09:17:52;99400.25;;;2.71;53.74
44198;BME280;30157;55.512;37.764;2023-03-13T09:20:18;99455.97;;;2.40;53.06
44198;BME280;30157;55.512;37.764;2023-03-13T09:22:44;99430.91;;;1.89;55.30
44198;BME280;30157;55.512;37.764;2023-03-13T09:25:11;99465.72;;;1.82;55.93
44198;BME280;30157;55.512;37.764;2023-03-13T09:27:36;99478.75;;;1.26;57.74
44198;BME280;30157;55.512;37.764;2023-03-13T09:30:03;99355.09;;;0.28;58.98
44198;BME280;30157;55.512;37.764;2023-03-13T09:32:29;99435.09;;;1.18;58.50
44198;BME280;30157;55.512;37.764;2023-03-13T09:34:55;99432.75;;;0.95;57.40
44198;BME280;30157;55.512;37.764;2023-03-13T09:37:20;99346.63;;;0.59;59.24
44198;BME280;30157;55.512;37.764;2023-03-13T09:39:48;99472.66;;;1.86;57.81
44198;BME280;30157;55.512;37.764;2023-03-13T09:42:19;99478.91;;;2.35;53.88
44198;BME280;30157;55.512;37.764;2023-03-13T09:44:58;99470.75;;;2.93;52.27
44198;BME280;30157;55.512;37.764;2023-03-13T09:47:41;99434.88;;;2.93;53.75
44198;BME280;30157;55.512;37.764;2023-03-13T09:50:19;99498.19;;;1.51;54.08
44198;BME280;30157;55.512;37.764;2023-03-13T09:52:50;99490.44;;;0.57;57.53
44198;BME280;30157;55.512;37.764;2023-03-13T09:55:51;99502.06;;;0.76;61.03
44198;BME280;30157;55.512;37.764;2023-03-13T09:58:20;99502.47;;;0.06;60.58
44198;BME280;30157;55.512;37.764;2023-03-13T10:01:02;99510.59;;;-0.31;61.55
44198;BME280;30157;55.512;37.764;2023-03-13T10:04:19;99514.94;;;-0.77;62.30
44198;BME280;30157;55.512;37.764;2023-03-13T10:06:24;99432.41;;;-1.29;63.10
44198;BME280;30157;55.512;37.764;2023-03-13T10:08:52;99483.38;;;-0.57;63.74
44198;BME280;30157;55.512;37.764;2023-03-13T10:11:42;99506.25;;;-0.08;62.28
44198;BME280;30157;55.512;37.764;2023-03-13T10:16:54;99456.34;;;-0.52;62.16
44198;BME280;30157;55.512;37.764;2023-03-13T10:19:31;99447.22;;;-0.45;61.07
44198;BME280;30157;55.512;37.764;2023-03-13T10:22:01;99514.66;;;-0.11;61.36
44198;BME280;30157;55.512;37.764;2023-03-13T10:24:40;99490.53;;;-0.21;62.60
44198;BME280;30157;55.512;37.764;2023-03-13T10:27:10;99462.50;;;-0.95;61.23
44198;BME280;30157;55.512;37.764;2023-03-13T10:29:38;99474.44;;;-1.18;63.63
44198;BME280;30157;55.512;37.764;2023-03-13T10:32:06;99421.13;;;-1.36;62.04
44198;BME280;30157;55.512;37.764;2023-03-13T10:35:00;99534.44;;;-0.55;62.91
44198;BME280;30157;55.512;37.764;2023-03-13T10:37:31;99540.47;;;-0.76;62.57
44198;BME280;30157;55.512;37.764;2023-03-13T10:40:22;99541.56;;;-0.69;63.78
44198;BME280;30157;55.512;37.764;2023-03-13T10:42:50;99544.19;;;-0.68;63.99
44198;BME280;30157;55.512;37.764;2023-03-13T10:45:18;99530.25;;;-0.53;63.19
44198;BME280;30157;55.512;37.764;2023-03-13T10:47:45;99546.47;;;-0.75;63.31
44198;BME280;30157;55.512;37.764;2023-03-13T10:50:21;99440.13;;;-0.79;64.20
44198;BME280;30157;55.512;37.764;2023-03-13T10:52:48;99436.06;;;-0.98;62.31
44198;BME280;30157;55.512;37.764;2023-03-13T10:55:22;99531.00;;;-0.56;63.61
44198;BME280;30157;55.512;37.764;2023-03-13T10:58:12;99549.28;;;-0.68;63.62
44198;BME280;30157;55.512;37.764;2023-03-13T11:00:41;99477.44;;;-1.28;65.08
44198;BME280;30157;55.512;37.764;2023-03-13T11:03:22;99542.31;;;-0.96;65.51
44198;BME280;30157;55.512;37.764;2023-03-13T11:05:56;99435.53;;;-1.82;65.32
44198;BME280;30157;55.512;37.764;2023-03-13T11:08:27;99541.16;;;-1.27;65.19
44198;BME280;30157;55.512;37.764;2023-03-13T11:11:04;99566.56;;;-1.06;64.73
44198;BME280;30157;55.512;37.764;2023-03-13T11:13:40;99573.97;;;-1.12;66.72
44198;BME280;30157;55.512;37.764;2023-03-13T11:16:35;99462.41;;;-1.89;65.37
44198;BME280;30157;55.512;37.764;2023-03-13T11:21:43;99597.44;;;-1.42;69.38
44198;BME280;30157;55.512;37.764;2023-03-13T11:25:01;99570.34;;;-1.62;69.95
44198;BME280;30157;55.512;37.764;2023-03-13T11:32:51;99610.63;;;-1.52;71.59
44198;BME280;30157;55.512;37.764;2023-03-13T11:38:04;99590.91;;;-1.98;77.90
44198;BME280;30157;55.512;37.764;2023-03-13T11:57:10;99617.22;;;-1.13;82.36
44198;BME280;30157;55.512;37.764;2023-03-13T12:02:40;99629.34;;;-0.85;76.84
44198;BME280;30157;55.512;37.764;2023-03-13T12:05:13;99566.91;;;-1.19;76.18
44198;BME280;30157;55.512;37.764;2023-03-13T12:10:39;99540.59;;;-1.20;75.06
44198;BME280;30157;55.512;37.764;2023-03-13T12:13:26;99557.38;;;-0.79;74.07
44198;BME280;30157;55.512;37.764;2023-03-13T12:16:00;99640.13;;;0.02;72.64
44198;BME280;30157;55.512;37.764;2023-03-13T12:18:37;99634.78;;;0.20;72.31
44198;BME280;30157;55.512;37.764;2023-03-13T12:21:16;99530.28;;;-0.27;70.83
44198;BME280;30157;55.512;37.764;2023-03-13T12:23:49;99643.31;;;0.46;71.16
44198;BME280;30157;55.512;37.764;2023-03-13T12:26:25;99526.22;;;0.58;68.39
44198;BME280;30157;55.512;37.764;2023-03-13T12:32:13;99629.72;;;2.93;65.62
44198;BME280;30157;55.512;37.764;2023-03-13T12:37:49;99641.22;;;0.87;61.72
44198;BME280;30157;55.512;37.764;2023-03-13T12:40:37;99634.78;;;1.27;63.71
44198;BME280;30157;55.512;37.764;2023-03-13T12:43:17;99638.06;;;0.69;62.92
44198;BME280;30157;55.512;37.764;2023-03-13T12:57:39;99547.00;;;3.00;50.28
44198;BME280;30157;55.512;37.764;2023-03-13T12:59:57;99645.88;;;5.18;48.89
44198;BME280;30157;55.512;37.764;2023-03-13T13:02:30;99642.09;;;4.43;46.26
44198;BME280;30157;55.512;37.764;2023-03-13T13:04:59;99650.00;;;5.07;47.73
44198;BME280;30157;55.512;37.764;2023-03-13T13:07:27;99625.56;;;5.38;45.30
44198;BME280;30157;55.512;37.764;2023-03-13T13:10:13;99649.47;;;5.99;44.82
44198;BME280;30157;55.512;37.764;2023-03-13T13:12:46;99645.75;;;6.55;42.51
44198;BME280;30157;55.512;37.764;2023-03-13T13:15:31;99602.72;;;4.99;43.88
44198;BME280;30157;55.512;37.764;2023-03-13T13:18:09;99606.56;;;2.18;49.63
44198;BME280;30157;55.512;37.764;2023-03-13T13:20:43;99660.72;;;0.83;55.54
44198;BME280;30157;55.512;37.764;2023-03-13T13:26:36;99685.31;;;-0.43;61.67
44198;BME280;30157;55.512;37.764;2023-03-13T13:31:55;99485.25;;;-0.01;56.37
44198;BME280;30157;55.512;37.764;2023-03-13T13:36:59;99551.41;;;-1.03;58.92
44198;BME280;30157;55.512;37.764;2023-03-13T13:39:34;99652.47;;;-0.80;58.61
44198;BME280;30157;55.512;37.764;2023-03-13T13:45:00;99625.75;;;-1.13;61.22
44198;BME280;30157;55.512;37.764;2023-03-13T13:47:28;99671.88;;;-1.05;61.15
44198;BME280;30157;55.512;37.764;2023-03-13T13:49:59;99641.50;;;0.42;55.91
44198;BME280;30157;55.512;37.764;2023-03-13T13:52:34;99613.44;;;1.57;50.78
44198;BME280;30157;55.512;37.764;2023-03-13T13:55:00;99678.63;;;3.01;47.89
44198;BME280;30157;55.512;37.764;2023-03-13T13:57:33;99684.94;;;3.96;47.41
44198;BME280;30157;55.512;37.764;2023-03-13T14:00:20;99696.16;;;3.59;44.08
44198;BME280;30157;55.512;37.764;2023-03-13T14:02:53;99632.56;;;2.34;47.60
44198;BME280;30157;55.512;37.764;2023-03-13T14:05:23;99696.59;;;3.02;48.95
44198;BME280;30157;55.512;37.764;2023-03-13T14:10:41;99668.31;;;4.22;47.44
44198;BME280;30157;55.512;37.764;2023-03-13T14:13:18;99697.50;;;4.27;45.93
44198;BME280;30157;55.512;37.764;2023-03-13T14:15:51;99731.09;;;1.84;50.61
44198;BME280;30157;55.512;37.764;2023-03-13T14:18:24;99712.81;;;0.13;55.37
44198;BME280;30157;55.512;37.764;2023-03-13T14:20:59;99728.88;;;-0.82;56.58
44198;BME280;30157;55.512;37.764;2023-03-13T14:25:56;99662.88;;;-2.01;57.33
44198;BME280;30157;55.512;37.764;2023-03-13T14:28:24;99755.72;;;-1.72;58.04
44198;BME280;30157;55.512;37.764;2023-03-13T14:30:53;99755.31;;;-1.81;60.05
44198;BME280;30157;55.512;37.764;2023-03-13T14:33:19;99726.72;;;-2.14;58.45
44198;BME280;30157;55.512;37.764;2023-03-13T14:35:45;99730.53;;;-2.24;59.82